Flight Track Log - Related Links

Times and Time Zones

All times are in EDT time to prevent confusion due to time zone crossing. See the SKW6335 flight status page for this flight to view local times or setup timezone preferences in your user account.

Time Position Orientation Groundspeed Altitude Reporting Facility
EDT Latitude Longitude Course Direction KTS MPH feet Rate Location/Type
Mon 07:02:21 PM 32.7667 -117.2667 308° West 185 213 2,700  Level Southern California TRACON
Mon 07:03:13 PM 32.7856 -117.3036 301° West 179 206 4,300 1,789 Climbing Los Angeles Center
Mon 07:04:15 PM 32.8100 -117.3539 300° West 178 205 6,100 1,742 Climbing Los Angeles Center
Mon 07:05:17 PM 32.8414 -117.4019 308° West 182 209 7,900 919 Climbing Los Angeles Center
Mon 07:06:19 PM 32.8831 -117.4525 314° West 206 237 8,000  Climbing Los Angeles Center
Mon 07:07:21 PM 32.9267 -117.5064 314° West 224 258 7,900 -48 Descending Los Angeles Center
Mon 07:08:23 PM 32.9761 -117.5631 316° Northwest 214 246 7,900  Level Los Angeles Center
Mon 07:09:25 PM 33.0150 -117.6111 314° West 207 238 7,900  Level Los Angeles Center
Mon 07:10:27 PM 33.0517 -117.6594 312° West 202 232 7,900  Level Los Angeles Center
Mon 07:11:29 PM 33.0889 -117.7092 312° West 200 230 7,900  Level Los Angeles Center
Mon 07:12:31 PM 33.1267 -117.7564 314° West 199 229 7,900  Level Los Angeles Center
Mon 07:13:33 PM 33.1814 -117.7783 341° North 201 231 7,900  Level Los Angeles Center
Mon 07:14:35 PM 33.2450 -117.8061 340° North 205 236 7,900  Level Los Angeles Center
Mon 07:15:37 PM 33.2989 -117.8325 338° Northwest 207 238 7,900  Level Los Angeles Center
Mon 07:16:39 PM 33.3522 -117.8556 340° North 205 236 7,900  Level Los Angeles Center
Mon 07:17:22 PM 33.4000 -117.8667 349° North 207 238 7,900  Level Southern California TRACON
Mon 07:17:41 PM 33.4072 -117.8778 308° West 207 238 7,900  Level Los Angeles Center
Mon 07:18:43 PM 33.4606 -117.9019 339° North 207 238 7,900  Level Los Angeles Center
Mon 07:19:45 PM 33.5253 -117.9325 339° North 208 239 7,900 -97 Level Los Angeles Center
Mon 07:20:47 PM 33.5786 -117.9569 339° North 206 237 7,700 -435 Descending Los Angeles Center
Mon 07:21:49 PM 33.6328 -117.9828 338° Northwest 208 239 7,000 -505 Descending Los Angeles Center
Mon 07:22:22 PM 33.6667 -118.0000 337° Northwest 193 222 6,900 -61 Descending Southern California TRACON
Mon 07:23:28 PM 33.7167 -118.0167 345° North 187 215 6,900 50 Level Southern California TRACON
Mon 07:24:22 PM 33.7667 -118.0500 331° Northwest 228 262 7,000 -100 Climbing Southern California TRACON
Mon 07:25:28 PM 33.8333 -118.0833 337° Northwest 238 274 6,700 -476 Descending Southern California TRACON
Mon 07:26:28 PM 33.8833 -118.1167 331° Northwest 236 272 6,000 -725 Descending Southern California TRACON
Mon 07:26:59 PM 33.9150 -118.1322 338° Northwest 237 273 5,600 -1,097 Descending Los Angeles Center
Mon 07:28:01 PM 33.9411 -118.1911 298° West 210 242 4,300 -1,161 Descending Los Angeles Center
Mon 07:29:03 PM 33.9494 -118.2500 280° West 190 219 3,200 -1,355 Descending Los Angeles Center
Mon 07:30:05 PM 33.9442 -118.3206 265° West 181 208 1,500 -1,645 Descending Los Angeles Center

Login

Don't have an account? Register now (free) for customized features, flight alerts, and more!